sensor_id;sensor_type;location;lat;lon;timestamp;P1;durP1;ratioP1;P2;durP2;ratioP2
76103;SDS011;64831;44.870;37.336;2023-10-08T00:02:09;7.82;;;1.20;;
76103;SDS011;64831;44.870;37.336;2023-10-08T00:04:36;7.03;;;1.92;;
76103;SDS011;64831;44.870;37.336;2023-10-08T00:07:05;4.45;;;1.33;;
76103;SDS011;64831;44.870;37.336;2023-10-08T00:09:34;6.50;;;2.35;;
76103;SDS011;64831;44.870;37.336;2023-10-08T00:12:03;4.28;;;1.33;;
76103;SDS011;64831;44.870;37.336;2023-10-08T00:14:30;15.23;;;2.03;;
76103;SDS011;64831;44.870;37.336;2023-10-08T00:17:10;7.85;;;1.60;;
76103;SDS011;64831;44.870;37.336;2023-10-08T00:19:36;6.97;;;1.67;;
76103;SDS011;64831;44.870;37.336;2023-10-08T00:22:05;12.23;;;1.90;;
76103;SDS011;64831;44.870;37.336;2023-10-08T00:24:33;3.38;;;1.55;;
76103;SDS011;64831;44.870;37.336;2023-10-08T00:26:59;7.35;;;1.75;;
76103;SDS011;64831;44.870;37.336;2023-10-08T00:29:31;3.95;;;1.55;;
76103;SDS011;64831;44.870;37.336;2023-10-08T00:31:58;5.05;;;1.75;;
76103;SDS011;64831;44.870;37.336;2023-10-08T00:34:24;3.80;;;1.80;;
76103;SDS011;64831;44.870;37.336;2023-10-08T00:36:50;4.63;;;1.50;;
76103;SDS011;64831;44.870;37.336;2023-10-08T00:39:17;5.03;;;1.35;;
76103;SDS011;64831;44.870;37.336;2023-10-08T00:41:50;1.90;;;1.30;;
76103;SDS011;64831;44.870;37.336;2023-10-08T00:44:20;3.28;;;1.27;;
76103;SDS011;64831;44.870;37.336;2023-10-08T00:46:49;4.47;;;1.88;;
76103;SDS011;64831;44.870;37.336;2023-10-08T00:49:16;9.00;;;1.60;;
76103;SDS011;64831;44.870;37.336;2023-10-08T00:52:13;5.00;;;1.92;;
76103;SDS011;64831;44.870;37.336;2023-10-08T00:54:40;13.10;;;2.10;;
76103;SDS011;64831;44.870;37.336;2023-10-08T00:57:18;5.70;;;1.67;;
76103;SDS011;64831;44.870;37.336;2023-10-08T00:59:47;5.25;;;1.17;;
76103;SDS011;64831;44.870;37.336;2023-10-08T01:02:24;3.72;;;1.90;;
76103;SDS011;64831;44.870;37.336;2023-10-08T01:05:16;5.32;;;2.28;;
76103;SDS011;64831;44.870;37.336;2023-10-08T01:07:51;5.47;;;2.08;;
76103;SDS011;64831;44.870;37.336;2023-10-08T01:10:19;4.22;;;1.58;;
76103;SDS011;64831;44.870;37.336;2023-10-08T01:12:46;8.82;;;1.95;;
76103;SDS011;64831;44.870;37.336;2023-10-08T01:15:28;5.88;;;1.63;;
76103;SDS011;64831;44.870;37.336;2023-10-08T01:17:55;3.80;;;1.77;;
76103;SDS011;64831;44.870;37.336;2023-10-08T01:20:39;3.45;;;1.63;;
76103;SDS011;64831;44.870;37.336;2023-10-08T01:23:25;5.50;;;1.83;;
76103;SDS011;64831;44.870;37.336;2023-10-08T01:25:54;2.97;;;1.92;;
76103;SDS011;64831;44.870;37.336;2023-10-08T01:28:46;4.22;;;1.70;;
76103;SDS011;64831;44.870;37.336;2023-10-08T01:31:12;5.97;;;2.20;;
76103;SDS011;64831;44.870;37.336;2023-10-08T01:33:38;4.38;;;2.50;;
76103;SDS011;64831;44.870;37.336;2023-10-08T01:36:12;6.95;;;2.38;;
76103;SDS011;64831;44.870;37.336;2023-10-08T01:38:38;4.32;;;2.00;;
76103;SDS011;64831;44.870;37.336;2023-10-08T01:41:07;7.40;;;2.17;;
76103;SDS011;64831;44.870;37.336;2023-10-08T01:43:56;4.57;;;2.15;;
76103;SDS011;64831;44.870;37.336;2023-10-08T01:46:25;2.42;;;1.33;;
76103;SDS011;64831;44.870;37.336;2023-10-08T01:48:52;8.60;;;2.25;;
76103;SDS011;64831;44.870;37.336;2023-10-08T01:51:25;5.38;;;2.10;;
76103;SDS011;64831;44.870;37.336;2023-10-08T01:54:01;3.50;;;2.05;;
76103;SDS011;64831;44.870;37.336;2023-10-08T01:56:29;6.70;;;1.83;;
76103;SDS011;64831;44.870;37.336;2023-10-08T01:58:55;9.52;;;2.85;;
76103;SDS011;64831;44.870;37.336;2023-10-08T02:01:21;7.18;;;1.15;;
76103;SDS011;64831;44.870;37.336;2023-10-08T02:03:47;9.10;;;1.92;;
76103;SDS011;64831;44.870;37.336;2023-10-08T02:06:13;9.65;;;2.00;;
76103;SDS011;64831;44.870;37.336;2023-10-08T02:08:39;4.20;;;1.95;;
76103;SDS011;64831;44.870;37.336;2023-10-08T02:11:06;5.57;;;1.70;;
76103;SDS011;64831;44.870;37.336;2023-10-08T02:13:33;6.35;;;2.00;;
76103;SDS011;64831;44.870;37.336;2023-10-08T02:16:00;4.78;;;2.00;;
76103;SDS011;64831;44.870;37.336;2023-10-08T02:18:27;5.75;;;1.83;;
76103;SDS011;64831;44.870;37.336;2023-10-08T02:20:54;1.70;;;1.15;;
76103;SDS011;64831;44.870;37.336;2023-10-08T02:23:20;6.90;;;1.88;;
76103;SDS011;64831;44.870;37.336;2023-10-08T02:25:46;7.13;;;1.90;;
76103;SDS011;64831;44.870;37.336;2023-10-08T02:28:13;8.18;;;1.92;;
76103;SDS011;64831;44.870;37.336;2023-10-08T02:30:41;9.82;;;1.90;;
76103;SDS011;64831;44.870;37.336;2023-10-08T02:33:08;10.73;;;1.77;;
76103;SDS011;64831;44.870;37.336;2023-10-08T02:35:44;7.20;;;1.75;;
76103;SDS011;64831;44.870;37.336;2023-10-08T02:38:13;4.00;;;1.50;;
76103;SDS011;64831;44.870;37.336;2023-10-08T02:40:43;3.65;;;2.08;;
76103;SDS011;64831;44.870;37.336;2023-10-08T02:43:14;6.03;;;1.58;;
76103;SDS011;64831;44.870;37.336;2023-10-08T02:45:41;4.25;;;1.73;;
76103;SDS011;64831;44.870;37.336;2023-10-08T02:48:09;6.88;;;2.05;;
76103;SDS011;64831;44.870;37.336;2023-10-08T02:50:41;4.18;;;1.27;;
76103;SDS011;64831;44.870;37.336;2023-10-08T02:53:11;6.85;;;1.80;;
76103;SDS011;64831;44.870;37.336;2023-10-08T02:55:40;2.13;;;1.45;;
76103;SDS011;64831;44.870;37.336;2023-10-08T02:58:10;4.03;;;1.67;;
76103;SDS011;64831;44.870;37.336;2023-10-08T03:00:40;6.25;;;1.88;;
76103;SDS011;64831;44.870;37.336;2023-10-08T03:03:12;5.65;;;2.50;;
76103;SDS011;64831;44.870;37.336;2023-10-08T03:05:52;7.82;;;2.42;;
76103;SDS011;64831;44.870;37.336;2023-10-08T03:08:22;5.05;;;1.80;;
76103;SDS011;64831;44.870;37.336;2023-10-08T03:10:49;3.70;;;1.92;;
76103;SDS011;64831;44.870;37.336;2023-10-08T03:13:21;1.95;;;1.23;;
76103;SDS011;64831;44.870;37.336;2023-10-08T03:15:48;5.32;;;1.70;;
76103;SDS011;64831;44.870;37.336;2023-10-08T03:18:14;4.57;;;1.90;;
76103;SDS011;64831;44.870;37.336;2023-10-08T03:20:40;12.27;;;2.28;;
76103;SDS011;64831;44.870;37.336;2023-10-08T03:23:12;7.57;;;2.28;;
76103;SDS011;64831;44.870;37.336;2023-10-08T03:25:54;8.57;;;2.70;;
76103;SDS011;64831;44.870;37.336;2023-10-08T03:28:26;7.57;;;2.53;;
76103;SDS011;64831;44.870;37.336;2023-10-08T03:31:00;9.77;;;2.25;;
76103;SDS011;64831;44.870;37.336;2023-10-08T03:33:53;13.07;;;2.40;;
76103;SDS011;64831;44.870;37.336;2023-10-08T03:36:20;13.70;;;2.50;;
76103;SDS011;64831;44.870;37.336;2023-10-08T03:38:46;3.40;;;1.90;;
76103;SDS011;64831;44.870;37.336;2023-10-08T03:41:17;6.40;;;1.90;;
76103;SDS011;64831;44.870;37.336;2023-10-08T03:43:44;18.92;;;2.97;;
76103;SDS011;64831;44.870;37.336;2023-10-08T03:46:29;10.15;;;2.95;;
76103;SDS011;64831;44.870;37.336;2023-10-08T03:48:56;7.32;;;2.38;;
76103;SDS011;64831;44.870;37.336;2023-10-08T03:51:29;13.18;;;2.13;;
76103;SDS011;64831;44.870;37.336;2023-10-08T03:54:06;6.82;;;2.10;;
76103;SDS011;64831;44.870;37.336;2023-10-08T03:56:35;10.82;;;1.92;;
76103;SDS011;64831;44.870;37.336;2023-10-08T03:59:06;5.53;;;2.15;;
76103;SDS011;64831;44.870;37.336;2023-10-08T04:01:40;13.20;;;2.10;;
76103;SDS011;64831;44.870;37.336;2023-10-08T04:04:07;9.20;;;2.42;;
76103;SDS011;64831;44.870;37.336;2023-10-08T04:06:40;3.60;;;1.77;;
76103;SDS011;64831;44.870;37.336;2023-10-08T04:09:17;11.75;;;2.85;;
76103;SDS011;64831;44.870;37.336;2023-10-08T04:11:46;6.53;;;2.28;;
76103;SDS011;64831;44.870;37.336;2023-10-08T04:14:13;9.00;;;3.17;;
76103;SDS011;64831;44.870;37.336;2023-10-08T04:16:41;9.32;;;2.10;;
76103;SDS011;64831;44.870;37.336;2023-10-08T04:19:08;13.07;;;2.25;;
76103;SDS011;64831;44.870;37.336;2023-10-08T04:21:34;6.05;;;2.00;;
76103;SDS011;64831;44.870;37.336;2023-10-08T04:24:01;5.70;;;1.95;;
76103;SDS011;64831;44.870;37.336;2023-10-08T04:26:34;7.30;;;2.35;;
76103;SDS011;64831;44.870;37.336;2023-10-08T04:29:01;6.80;;;2.03;;
76103;SDS011;64831;44.870;37.336;2023-10-08T04:31:28;7.93;;;2.50;;
76103;SDS011;64831;44.870;37.336;2023-10-08T04:34:09;9.25;;;2.47;;
76103;SDS011;64831;44.870;37.336;2023-10-08T04:36:43;8.43;;;2.15;;
76103;SDS011;64831;44.870;37.336;2023-10-08T04:39:19;6.65;;;2.00;;
76103;SDS011;64831;44.870;37.336;2023-10-08T04:42:03;6.28;;;2.05;;
76103;SDS011;64831;44.870;37.336;2023-10-08T04:44:36;8.97;;;2.50;;
76103;SDS011;64831;44.870;37.336;2023-10-08T04:49:52;4.15;;;1.60;;
76103;SDS011;64831;44.870;37.336;2023-10-08T04:52:18;15.68;;;2.22;;
76103;SDS011;64831;44.870;37.336;2023-10-08T04:54:45;7.07;;;1.92;;
76103;SDS011;64831;44.870;37.336;2023-10-08T04:57:19;3.00;;;1.63;;
76103;SDS011;64831;44.870;37.336;2023-10-08T04:59:51;8.50;;;2.28;;
76103;SDS011;64831;44.870;37.336;2023-10-08T05:02:19;5.05;;;2.20;;
76103;SDS011;64831;44.870;37.336;2023-10-08T05:05:01;6.65;;;1.90;;
76103;SDS011;64831;44.870;37.336;2023-10-08T05:07:36;12.77;;;2.13;;
76103;SDS011;64831;44.870;37.336;2023-10-08T05:10:25;8.15;;;2.35;;
76103;SDS011;64831;44.870;37.336;2023-10-08T05:12:52;6.65;;;2.03;;
76103;SDS011;64831;44.870;37.336;2023-10-08T05:15:31;6.68;;;2.10;;
76103;SDS011;64831;44.870;37.336;2023-10-08T05:18:27;10.13;;;2.20;;
76103;SDS011;64831;44.870;37.336;2023-10-08T05:21:14;8.45;;;2.03;;
76103;SDS011;64831;44.870;37.336;2023-10-08T05:23:59;5.82;;;2.15;;
76103;SDS011;64831;44.870;37.336;2023-10-08T05:26:41;4.43;;;2.00;;
76103;SDS011;64831;44.870;37.336;2023-10-08T05:29:09;4.82;;;2.20;;
76103;SDS011;64831;44.870;37.336;2023-10-08T05:31:59;6.05;;;2.17;;
76103;SDS011;64831;44.870;37.336;2023-10-08T05:34:45;7.30;;;2.15;;
76103;SDS011;64831;44.870;37.336;2023-10-08T05:37:36;7.45;;;1.83;;
76103;SDS011;64831;44.870;37.336;2023-10-08T05:40:08;5.70;;;1.75;;
76103;SDS011;64831;44.870;37.336;2023-10-08T05:42:46;5.80;;;1.80;;
76103;SDS011;64831;44.870;37.336;2023-10-08T05:45:14;11.32;;;2.88;;
76103;SDS011;64831;44.870;37.336;2023-10-08T05:50:38;7.53;;;1.83;;
76103;SDS011;64831;44.870;37.336;2023-10-08T05:53:04;6.65;;;2.10;;
76103;SDS011;64831;44.870;37.336;2023-10-08T05:58:26;8.55;;;2.25;;
76103;SDS011;64831;44.870;37.336;2023-10-08T06:01:01;3.25;;;1.60;;
76103;SDS011;64831;44.870;37.336;2023-10-08T06:03:34;4.28;;;1.80;;
76103;SDS011;64831;44.870;37.336;2023-10-08T06:06:29;5.63;;;2.00;;
76103;SDS011;64831;44.870;37.336;2023-10-08T06:09:03;7.93;;;2.10;;
76103;SDS011;64831;44.870;37.336;2023-10-08T06:11:47;7.93;;;2.15;;
76103;SDS011;64831;44.870;37.336;2023-10-08T06:14:34;16.15;;;3.13;;
76103;SDS011;64831;44.870;37.336;2023-10-08T06:17:32;11.23;;;2.88;;
76103;SDS011;64831;44.870;37.336;2023-10-08T06:20:22;9.52;;;2.47;;
76103;SDS011;64831;44.870;37.336;2023-10-08T06:22:53;8.68;;;2.30;;
76103;SDS011;64831;44.870;37.336;2023-10-08T06:25:24;9.43;;;2.20;;
76103;SDS011;64831;44.870;37.336;2023-10-08T06:27:53;13.93;;;3.00;;
76103;SDS011;64831;44.870;37.336;2023-10-08T06:30:23;8.68;;;1.95;;
76103;SDS011;64831;44.870;37.336;2023-10-08T06:32:50;11.32;;;1.92;;
76103;SDS011;64831;44.870;37.336;2023-10-08T06:35:19;7.25;;;2.17;;
76103;SDS011;64831;44.870;37.336;2023-10-08T06:37:50;6.15;;;2.53;;
76103;SDS011;64831;44.870;37.336;2023-10-08T06:43:01;7.07;;;2.80;;
76103;SDS011;64831;44.870;37.336;2023-10-08T06:45:40;7.45;;;2.80;;
76103;SDS011;64831;44.870;37.336;2023-10-08T06:48:08;8.35;;;2.13;;
76103;SDS011;64831;44.870;37.336;2023-10-08T06:50:35;7.43;;;1.65;;
76103;SDS011;64831;44.870;37.336;2023-10-08T06:53:02;3.85;;;2.00;;
76103;SDS011;64831;44.870;37.336;2023-10-08T06:55:35;6.25;;;1.98;;
76103;SDS011;64831;44.870;37.336;2023-10-08T06:58:02;6.13;;;2.17;;
76103;SDS011;64831;44.870;37.336;2023-10-08T07:00:33;9.52;;;2.83;;
76103;SDS011;64831;44.870;37.336;2023-10-08T07:03:06;7.93;;;2.28;;
76103;SDS011;64831;44.870;37.336;2023-10-08T07:05:34;4.72;;;2.60;;
76103;SDS011;64831;44.870;37.336;2023-10-08T07:08:09;8.57;;;2.00;;
76103;SDS011;64831;44.870;37.336;2023-10-08T07:10:38;12.73;;;2.55;;
76103;SDS011;64831;44.870;37.336;2023-10-08T07:13:07;12.50;;;2.80;;
76103;SDS011;64831;44.870;37.336;2023-10-08T07:15:33;7.75;;;2.03;;
76103;SDS011;64831;44.870;37.336;2023-10-08T07:18:05;8.05;;;2.33;;
76103;SDS011;64831;44.870;37.336;2023-10-08T07:20:37;7.47;;;2.50;;
76103;SDS011;64831;44.870;37.336;2023-10-08T07:23:05;8.10;;;2.47;;
76103;SDS011;64831;44.870;37.336;2023-10-08T07:25:43;13.43;;;1.88;;
76103;SDS011;64831;44.870;37.336;2023-10-08T07:28:14;9.20;;;2.40;;
76103;SDS011;64831;44.870;37.336;2023-10-08T07:30:40;5.88;;;2.33;;
76103;SDS011;64831;44.870;37.336;2023-10-08T07:33:12;5.55;;;2.42;;
76103;SDS011;64831;44.870;37.336;2023-10-08T07:35:44;5.80;;;2.20;;
76103;SDS011;64831;44.870;37.336;2023-10-08T07:38:31;8.35;;;2.30;;
76103;SDS011;64831;44.870;37.336;2023-10-08T07:40:58;5.57;;;2.15;;
76103;SDS011;64831;44.870;37.336;2023-10-08T07:43:26;9.70;;;2.08;;
76103;SDS011;64831;44.870;37.336;2023-10-08T07:45:54;9.75;;;2.40;;
76103;SDS011;64831;44.870;37.336;2023-10-08T07:48:20;8.20;;;2.40;;
76103;SDS011;64831;44.870;37.336;2023-10-08T07:50:48;8.70;;;2.95;;
76103;SDS011;64831;44.870;37.336;2023-10-08T07:53:16;6.25;;;2.33;;
76103;SDS011;64831;44.870;37.336;2023-10-08T07:55:45;9.55;;;1.90;;
76103;SDS011;64831;44.870;37.336;2023-10-08T07:58:14;7.80;;;2.00;;
76103;SDS011;64831;44.870;37.336;2023-10-08T08:00:41;10.77;;;2.17;;
76103;SDS011;64831;44.870;37.336;2023-10-08T08:03:07;9.73;;;2.50;;
76103;SDS011;64831;44.870;37.336;2023-10-08T08:05:34;9.15;;;2.33;;
76103;SDS011;64831;44.870;37.336;2023-10-08T08:08:03;4.82;;;2.13;;
76103;SDS011;64831;44.870;37.336;2023-10-08T08:10:31;5.68;;;2.10;;
76103;SDS011;64831;44.870;37.336;2023-10-08T08:13:04;6.50;;;2.30;;
76103;SDS011;64831;44.870;37.336;2023-10-08T08:15:34;6.90;;;2.15;;
76103;SDS011;64831;44.870;37.336;2023-10-08T08:18:05;11.05;;;2.40;;
76103;SDS011;64831;44.870;37.336;2023-10-08T08:20:32;3.85;;;2.10;;
76103;SDS011;64831;44.870;37.336;2023-10-08T08:23:09;8.95;;;2.45;;
76103;SDS011;64831;44.870;37.336;2023-10-08T08:25:38;7.32;;;2.40;;
76103;SDS011;64831;44.870;37.336;2023-10-08T08:28:23;10.40;;;2.33;;
76103;SDS011;64831;44.870;37.336;2023-10-08T08:30:50;9.88;;;2.75;;
76103;SDS011;64831;44.870;37.336;2023-10-08T08:33:20;7.10;;;1.73;;
76103;SDS011;64831;44.870;37.336;2023-10-08T08:36:02;8.70;;;2.35;;
76103;SDS011;64831;44.870;37.336;2023-10-08T08:38:30;4.65;;;2.08;;
76103;SDS011;64831;44.870;37.336;2023-10-08T08:41:06;6.57;;;2.35;;
76103;SDS011;64831;44.870;37.336;2023-10-08T08:43:36;7.53;;;2.00;;
76103;SDS011;64831;44.870;37.336;2023-10-08T08:46:02;9.95;;;2.38;;
76103;SDS011;64831;44.870;37.336;2023-10-08T08:48:33;11.27;;;2.40;;
76103;SDS011;64831;44.870;37.336;2023-10-08T08:51:00;7.25;;;2.65;;
76103;SDS011;64831;44.870;37.336;2023-10-08T08:53:26;13.68;;;2.30;;
76103;SDS011;64831;44.870;37.336;2023-10-08T08:55:53;9.15;;;2.10;;
76103;SDS011;64831;44.870;37.336;2023-10-08T08:58:20;5.78;;;1.63;;
76103;SDS011;64831;44.870;37.336;2023-10-08T09:00:47;7.13;;;2.50;;
76103;SDS011;64831;44.870;37.336;2023-10-08T09:03:17;6.78;;;2.75;;
76103;SDS011;64831;44.870;37.336;2023-10-08T09:05:45;9.82;;;2.70;;
76103;SDS011;64831;44.870;37.336;2023-10-08T09:08:16;7.72;;;1.95;;
76103;SDS011;64831;44.870;37.336;2023-10-08T09:10:44;5.43;;;2.10;;
76103;SDS011;64831;44.870;37.336;2023-10-08T09:13:19;8.70;;;2.60;;
76103;SDS011;64831;44.870;37.336;2023-10-08T09:15:47;11.77;;;2.53;;
76103;SDS011;64831;44.870;37.336;2023-10-08T09:18:14;18.08;;;2.80;;
76103;SDS011;64831;44.870;37.336;2023-10-08T09:20:40;11.93;;;3.50;;
76103;SDS011;64831;44.870;37.336;2023-10-08T09:23:10;6.60;;;1.92;;
76103;SDS011;64831;44.870;37.336;2023-10-08T09:25:39;5.38;;;2.53;;
76103;SDS011;64831;44.870;37.336;2023-10-08T09:28:07;6.60;;;1.90;;
76103;SDS011;64831;44.870;37.336;2023-10-08T09:30:34;7.72;;;2.45;;
76103;SDS011;64831;44.870;37.336;2023-10-08T09:33:04;8.65;;;2.58;;
76103;SDS011;64831;44.870;37.336;2023-10-08T09:35:34;8.30;;;2.80;;
76103;SDS011;64831;44.870;37.336;2023-10-08T09:38:07;7.50;;;2.35;;
76103;SDS011;64831;44.870;37.336;2023-10-08T09:40:47;8.85;;;2.78;;
76103;SDS011;64831;44.870;37.336;2023-10-08T09:43:14;8.52;;;2.38;;
76103;SDS011;64831;44.870;37.336;2023-10-08T09:45:52;12.70;;;2.30;;
76103;SDS011;64831;44.870;37.336;2023-10-08T09:48:25;13.73;;;3.47;;
76103;SDS011;64831;44.870;37.336;2023-10-08T09:50:55;8.68;;;2.70;;
76103;SDS011;64831;44.870;37.336;2023-10-08T09:53:31;10.43;;;2.38;;
76103;SDS011;64831;44.870;37.336;2023-10-08T09:56:12;10.38;;;2.63;;
76103;SDS011;64831;44.870;37.336;2023-10-08T09:58:41;7.15;;;2.65;;
76103;SDS011;64831;44.870;37.336;2023-10-08T10:01:08;5.00;;;2.15;;
76103;SDS011;64831;44.870;37.336;2023-10-08T10:03:36;5.88;;;2.47;;
76103;SDS011;64831;44.870;37.336;2023-10-08T10:06:02;7.05;;;2.33;;
76103;SDS011;64831;44.870;37.336;2023-10-08T10:08:35;3.97;;;1.80;;
76103;SDS011;64831;44.870;37.336;2023-10-08T10:11:01;12.60;;;2.38;;
76103;SDS011;64831;44.870;37.336;2023-10-08T10:13:28;13.38;;;2.25;;
76103;SDS011;64831;44.870;37.336;2023-10-08T10:15:58;9.40;;;2.90;;
76103;SDS011;64831;44.870;37.336;2023-10-08T10:31:34;4.70;;;2.15;;
76103;SDS011;64831;44.870;37.336;2023-10-08T10:34:07;6.38;;;2.50;;
76103;SDS011;64831;44.870;37.336;2023-10-08T10:36:37;4.10;;;2.03;;
76103;SDS011;64831;44.870;37.336;2023-10-08T10:39:05;8.52;;;2.22;;
76103;SDS011;64831;44.870;37.336;2023-10-08T10:41:51;7.53;;;2.42;;
76103;SDS011;64831;44.870;37.336;2023-10-08T10:44:27;13.98;;;2.00;;
76103;SDS011;64831;44.870;37.336;2023-10-08T10:46:55;9.20;;;2.45;;
76103;SDS011;64831;44.870;37.336;2023-10-08T10:49:41;6.50;;;2.40;;
76103;SDS011;64831;44.870;37.336;2023-10-08T10:52:17;5.68;;;2.50;;
76103;SDS011;64831;44.870;37.336;2023-10-08T10:54:59;6.13;;;2.20;;
76103;SDS011;64831;44.870;37.336;2023-10-08T10:57:55;7.32;;;2.90;;
76103;SDS011;64831;44.870;37.336;2023-10-08T11:00:28;7.85;;;2.20;;
76103;SDS011;64831;44.870;37.336;2023-10-08T11:02:58;6.93;;;2.58;;
76103;SDS011;64831;44.870;37.336;2023-10-08T11:05:31;11.80;;;2.85;;
76103;SDS011;64831;44.870;37.336;2023-10-08T11:08:02;4.22;;;2.42;;
76103;SDS011;64831;44.870;37.336;2023-10-08T11:10:35;7.78;;;2.40;;
76103;SDS011;64831;44.870;37.336;2023-10-08T11:13:08;10.15;;;2.30;;
76103;SDS011;64831;44.870;37.336;2023-10-08T11:15:45;4.03;;;2.08;;
76103;SDS011;64831;44.870;37.336;2023-10-08T11:18:18;9.85;;;2.40;;
76103;SDS011;64831;44.870;37.336;2023-10-08T11:20:46;6.25;;;2.28;;
76103;SDS011;64831;44.870;37.336;2023-10-08T11:23:32;20.20;;;3.15;;
76103;SDS011;64831;44.870;37.336;2023-10-08T11:26:03;6.68;;;2.55;;
76103;SDS011;64831;44.870;37.336;2023-10-08T11:31:05;16.98;;;2.63;;
76103;SDS011;64831;44.870;37.336;2023-10-08T11:33:35;8.85;;;3.03;;
76103;SDS011;64831;44.870;37.336;2023-10-08T11:36:02;12.43;;;3.80;;
76103;SDS011;64831;44.870;37.336;2023-10-08T11:38:41;12.32;;;2.65;;
76103;SDS011;64831;44.870;37.336;2023-10-08T11:41:11;8.77;;;2.92;;
76103;SDS011;64831;44.870;37.336;2023-10-08T11:43:49;6.57;;;2.55;;
76103;SDS011;64831;44.870;37.336;2023-10-08T11:46:20;13.80;;;3.03;;
76103;SDS011;64831;44.870;37.336;2023-10-08T11:48:47;9.40;;;2.58;;
76103;SDS011;64831;44.870;37.336;2023-10-08T11:51:14;15.60;;;2.88;;
76103;SDS011;64831;44.870;37.336;2023-10-08T11:53:43;10.02;;;2.80;;
76103;SDS011;64831;44.870;37.336;2023-10-08T11:56:10;9.88;;;2.80;;
76103;SDS011;64831;44.870;37.336;2023-10-08T11:58:39;9.95;;;2.65;;
76103;SDS011;64831;44.870;37.336;2023-10-08T12:01:12;5.68;;;2.17;;
76103;SDS011;64831;44.870;37.336;2023-10-08T12:03:44;9.98;;;2.85;;
76103;SDS011;64831;44.870;37.336;2023-10-08T12:06:11;6.45;;;2.20;;
76103;SDS011;64831;44.870;37.336;2023-10-08T12:08:47;13.70;;;2.80;;
76103;SDS011;64831;44.870;37.336;2023-10-08T12:11:19;10.88;;;2.53;;
76103;SDS011;64831;44.870;37.336;2023-10-08T12:13:48;8.77;;;2.67;;
76103;SDS011;64831;44.870;37.336;2023-10-08T12:16:15;6.88;;;2.47;;
76103;SDS011;64831;44.870;37.336;2023-10-08T12:18:47;8.90;;;3.25;;
76103;SDS011;64831;44.870;37.336;2023-10-08T12:21:27;5.28;;;2.47;;
76103;SDS011;64831;44.870;37.336;2023-10-08T12:23:57;10.60;;;2.90;;
76103;SDS011;64831;44.870;37.336;2023-10-08T12:26:23;9.00;;;2.08;;
76103;SDS011;64831;44.870;37.336;2023-10-08T12:28:50;9.57;;;2.97;;
76103;SDS011;64831;44.870;37.336;2023-10-08T12:31:19;9.13;;;3.17;;
76103;SDS011;64831;44.870;37.336;2023-10-08T12:33:49;14.73;;;2.60;;
76103;SDS011;64831;44.870;37.336;2023-10-08T12:36:24;23.42;;;5.13;;
76103;SDS011;64831;44.870;37.336;2023-10-08T12:38:51;34.03;;;3.20;;
76103;SDS011;64831;44.870;37.336;2023-10-08T12:41:24;16.00;;;3.50;;
76103;SDS011;64831;44.870;37.336;2023-10-08T12:43:52;12.85;;;3.40;;
76103;SDS011;64831;44.870;37.336;2023-10-08T12:46:19;6.53;;;2.70;;
76103;SDS011;64831;44.870;37.336;2023-10-08T12:48:56;15.35;;;2.88;;
76103;SDS011;64831;44.870;37.336;2023-10-08T12:51:23;12.98;;;3.35;;
76103;SDS011;64831;44.870;37.336;2023-10-08T12:53:50;9.80;;;3.35;;
76103;SDS011;64831;44.870;37.336;2023-10-08T12:56:24;12.60;;;3.53;;
76103;SDS011;64831;44.870;37.336;2023-10-08T12:58:57;8.52;;;3.78;;
76103;SDS011;64831;44.870;37.336;2023-10-08T13:01:24;12.38;;;4.28;;
76103;SDS011;64831;44.870;37.336;2023-10-08T13:03:54;20.40;;;3.53;;
76103;SDS011;64831;44.870;37.336;2023-10-08T13:06:26;10.25;;;2.90;;
76103;SDS011;64831;44.870;37.336;2023-10-08T13:08:59;12.48;;;3.17;;
76103;SDS011;64831;44.870;37.336;2023-10-08T13:11:25;10.38;;;3.40;;
76103;SDS011;64831;44.870;37.336;2023-10-08T13:13:55;18.42;;;3.55;;
76103;SDS011;64831;44.870;37.336;2023-10-08T13:16:24;8.35;;;2.92;;
76103;SDS011;64831;44.870;37.336;2023-10-08T13:18:51;12.30;;;3.45;;
76103;SDS011;64831;44.870;37.336;2023-10-08T13:21:17;12.20;;;4.70;;
76103;SDS011;64831;44.870;37.336;2023-10-08T13:23:50;17.08;;;5.90;;
76103;SDS011;64831;44.870;37.336;2023-10-08T13:26:17;13.77;;;3.97;;
76103;SDS011;64831;44.870;37.336;2023-10-08T13:28:43;12.10;;;3.92;;
76103;SDS011;64831;44.870;37.336;2023-10-08T13:31:10;10.70;;;3.55;;
76103;SDS011;64831;44.870;37.336;2023-10-08T13:33:37;13.70;;;4.68;;
76103;SDS011;64831;44.870;37.336;2023-10-08T13:36:07;6.53;;;2.97;;
76103;SDS011;64831;44.870;37.336;2023-10-08T13:38:34;15.25;;;4.70;;
76103;SDS011;64831;44.870;37.336;2023-10-08T13:41:03;8.65;;;3.50;;
76103;SDS011;64831;44.870;37.336;2023-10-08T13:43:40;9.35;;;3.50;;
76103;SDS011;64831;44.870;37.336;2023-10-08T13:46:11;9.68;;;3.58;;
76103;SDS011;64831;44.870;37.336;2023-10-08T13:48:43;14.68;;;4.20;;
76103;SDS011;64831;44.870;37.336;2023-10-08T13:51:19;12.27;;;4.63;;
76103;SDS011;64831;44.870;37.336;2023-10-08T13:53:53;13.05;;;3.70;;
76103;SDS011;64831;44.870;37.336;2023-10-08T13:56:25;14.30;;;4.35;;
76103;SDS011;64831;44.870;37.336;2023-10-08T13:58:55;9.77;;;3.88;;
76103;SDS011;64831;44.870;37.336;2023-10-08T14:01:30;11.45;;;4.32;;
76103;SDS011;64831;44.870;37.336;2023-10-08T14:03:59;13.05;;;3.88;;
76103;SDS011;64831;44.870;37.336;2023-10-08T14:06:31;15.82;;;4.35;;
76103;SDS011;64831;44.870;37.336;2023-10-08T14:08:58;19.42;;;4.10;;
76103;SDS011;64831;44.870;37.336;2023-10-08T14:11:26;10.02;;;3.67;;
76103;SDS011;64831;44.870;37.336;2023-10-08T14:13:58;13.15;;;3.70;;
76103;SDS011;64831;44.870;37.336;2023-10-08T14:16:31;9.75;;;3.92;;
76103;SDS011;64831;44.870;37.336;2023-10-08T14:18:57;15.20;;;4.60;;
76103;SDS011;64831;44.870;37.336;2023-10-08T14:21:25;13.10;;;4.55;;
76103;SDS011;64831;44.870;37.336;2023-10-08T14:24:02;14.10;;;4.45;;
76103;SDS011;64831;44.870;37.336;2023-10-08T14:26:29;12.82;;;4.90;;
76103;SDS011;64831;44.870;37.336;2023-10-08T14:29:02;18.75;;;4.43;;
76103;SDS011;64831;44.870;37.336;2023-10-08T14:31:42;25.70;;;5.90;;
76103;SDS011;64831;44.870;37.336;2023-10-08T14:34:16;8.10;;;3.78;;
76103;SDS011;64831;44.870;37.336;2023-10-08T14:36:43;16.40;;;4.97;;
76103;SDS011;64831;44.870;37.336;2023-10-08T14:39:28;9.13;;;3.67;;
76103;SDS011;64831;44.870;37.336;2023-10-08T14:42:12;6.68;;;3.35;;
76103;SDS011;64831;44.870;37.336;2023-10-08T14:44:57;9.60;;;4.07;;
76103;SDS011;64831;44.870;37.336;2023-10-08T14:47:23;13.57;;;3.78;;
76103;SDS011;64831;44.870;37.336;2023-10-08T14:49:49;12.25;;;4.60;;
76103;SDS011;64831;44.870;37.336;2023-10-08T14:52:15;14.27;;;4.88;;
76103;SDS011;64831;44.870;37.336;2023-10-08T14:54:42;10.60;;;3.20;;
76103;SDS011;64831;44.870;37.336;2023-10-08T14:57:08;6.85;;;3.17;;
76103;SDS011;64831;44.870;37.336;2023-10-08T14:59:37;6.78;;;3.30;;
76103;SDS011;64831;44.870;37.336;2023-10-08T15:02:03;15.13;;;3.97;;
76103;SDS011;64831;44.870;37.336;2023-10-08T15:04:29;13.93;;;4.50;;
76103;SDS011;64831;44.870;37.336;2023-10-08T15:06:57;12.30;;;4.20;;
76103;SDS011;64831;44.870;37.336;2023-10-08T15:09:24;8.18;;;3.78;;
76103;SDS011;64831;44.870;37.336;2023-10-08T15:11:50;18.92;;;5.75;;
76103;SDS011;64831;44.870;37.336;2023-10-08T15:14:19;11.13;;;3.05;;
76103;SDS011;64831;44.870;37.336;2023-10-08T15:16:47;14.40;;;4.10;;
76103;SDS011;64831;44.870;37.336;2023-10-08T15:19:26;17.13;;;3.97;;
76103;SDS011;64831;44.870;37.336;2023-10-08T15:21:53;27.92;;;5.75;;
76103;SDS011;64831;44.870;37.336;2023-10-08T15:24:19;12.05;;;3.28;;